Estación Meteorológica Peña el Pijo (Robertgarden) [ 07/19/24 12:01:10 CEST ]

Fecha Hora Presion(HPa) Temp (°C) Humedad % Rocio (°C) Viento ( m/s) Direccion Lluvia 1Hora(mm) Lluvia 24H(mm) LLuvia Total(mm)
2010-Jan-31 01:01:12 1000.700 3.4 72 -1.2         69.41
2010-Jan-31 02:03:13 1000.100 3.5 72 -1.1         69.41
2010-Jan-31 03:01:17 999.700 3.3 73 -1.1         69.41
2010-Jan-31 04:01:19 999.700 3.3 73 -1.1         69.41
2010-Jan-31 05:01:12 999.000 3.3 73 -1.1         69.41
2010-Jan-31 06:01:12 998.900 3.6 72 -1.0         69.41
2010-Jan-31 07:01:13 998.600 3.6 72 -1.0 1.9 SE     69.41
2010-Jan-31 08:01:16 998.900 3.4 72 -1.2 1.2 S     69.41
2010-Jan-31 09:01:14 999.600 3.7 71 -1.1         69.41
2010-Jan-31 10:01:11 999.800 6.1 64 -0.2 2.8 E     69.41
2010-Jan-31 11:01:14 1000.300 6.9 60 -0.3         69.41
2010-Jan-31 12:01:13 1001.200 7.8 55 -0.7 2.2 S     69.41
2010-Jan-31 13:01:15 1001.100 8.3 52 -1.0         69.41
2010-Jan-31 14:01:11 1000.500 7.5 53 -1.5 3.0 SSW     69.41
2010-Jan-31 15:01:15 1000.300 8.3 50 -1.5         69.41
2010-Jan-31 16:01:11 1000.400 8.4 49 -1.7         69.41
2010-Jan-31 17:01:15 1000.400 5.9 55 -2.5         69.41
2010-Jan-31 18:01:14 1001.200 4.4 60 -2.7         69.41
2010-Jan-31 19:01:12 1001.700 3.3 64 -2.9         69.41
2010-Jan-31 20:01:13 1002.200 2.8 67 -2.7         69.41
2010-Jan-31 21:01:15 1002.500 2.4 69 -2.7         69.41
2010-Jan-31 22:01:13 1002.800 2.1 70 -2.8         69.41
2010-Jan-31 23:01:13 1002.700 1.8 72 -2.7         69.41

Temperatura Máxima:    Temperatura Mínima:
Presión Máxima:1002.800 Hpa    Presión Mínima:998.600 Hpa


Volver